Flight Track Log - Related Links

Times and Time Zones

All times are in EST time to prevent confusion due to time zone crossing. See the FIN666 flight status page for this flight to view local times or setup timezone preferences in your user account.

Time Position Orientation Groundspeed Altitude Reporting Facility
EST Latitude Longitude Course Direction KTS MPH feet Rate Location/Type
Thu 07:22:00 AM 55.8389 13.1126 49° Northeast  Level Estimated
Thu 07:23:00 AM 55.9122 13.2660 50° Northeast  Level Estimated
Thu 07:24:00 AM 55.9853 13.4199 50° Northeast  Level Estimated
Thu 07:25:00 AM 56.0582 13.5744 50° Northeast  Level Estimated
Thu 07:26:00 AM 56.1319 13.7317 50° Northeast  Level Estimated
Thu 07:27:00 AM 56.2054 13.8897 50° Northeast  Level Estimated
Thu 07:28:00 AM 56.2788 14.0482 50° Northeast  Level Estimated
Thu 07:29:00 AM 56.3519 14.2074 50° Northeast  Level Estimated
Thu 07:30:00 AM 56.4249 14.3671 50° Northeast  Level Estimated
Thu 07:31:00 AM 56.4976 14.5275 51° Northeast  Level Estimated
Thu 07:32:00 AM 56.5701 14.6885 51° Northeast  Level Estimated
Thu 07:33:00 AM 56.6424 14.8501 51° Northeast  Level Estimated
Thu 07:34:00 AM 56.7145 15.0123 51° Northeast  Level Estimated
Thu 07:35:00 AM 56.7864 15.1752 51° Northeast  Level Estimated
Thu 07:36:00 AM 56.8581 15.3386 51° Northeast  Level Estimated
Thu 07:37:00 AM 56.9295 15.5027 51° Northeast  Level Estimated
Thu 07:38:00 AM 57.0008 15.6675 52° Northeast  Level Estimated
Thu 07:39:00 AM 57.0718 15.8328 52° Northeast  Level Estimated
Thu 07:40:00 AM 57.1426 15.9988 52° Northeast  Level Estimated
Thu 07:41:00 AM 57.2132 16.1654 52° Northeast  Level Estimated
Thu 07:42:00 AM 57.2836 16.3327 52° Northeast  Level Estimated
Thu 07:43:00 AM 57.3537 16.5006 52° Northeast  Level Estimated
Thu 07:44:00 AM 57.4236 16.6691 52° Northeast  Level Estimated
Thu 07:45:00 AM 57.4933 16.8383 52° Northeast  Level Estimated
Thu 07:46:00 AM 57.5628 17.0082 53° Northeast  Level Estimated
Thu 07:47:00 AM 57.6320 17.1786 53° Northeast  Level Estimated
Thu 07:48:00 AM 57.7010 17.3498 53° Northeast  Level Estimated
Thu 07:49:00 AM 57.7698 17.5216 53° Northeast  Level Estimated
Thu 07:50:00 AM 57.8384 17.6940 53° Northeast  Level Estimated
Thu 07:51:00 AM 57.9067 17.8671 53° Northeast  Level Estimated
Thu 07:52:00 AM 57.9747 18.0408 53° Northeast  Level Estimated
Thu 07:53:00 AM 58.0426 18.2153 54° Northeast  Level Estimated
Thu 07:54:00 AM 58.1102 18.3903 54° Northeast  Level Estimated
Thu 07:55:00 AM 58.1775 18.5661 54° Northeast  Level Estimated
Thu 07:56:00 AM 58.2446 18.7425 54° Northeast  Level Estimated
Thu 07:57:00 AM 58.3115 18.9196 54° Northeast  Level Estimated
Thu 07:58:00 AM 58.3781 19.0973 54° Northeast  Level Estimated
Thu 07:59:00 AM 58.4445 19.2757 55° Northeast  Level Estimated
Thu 08:00:00 AM 58.5106 19.4548 55° Northeast  Level Estimated
Thu 08:01:00 AM 58.5765 19.6346 55° Northeast  Level Estimated
Thu 08:02:00 AM 58.6421 19.8150 55° Northeast  Level Estimated
Thu 08:03:00 AM 58.7075 19.9961 55° Northeast  Level Estimated
Thu 08:04:00 AM 58.7726 20.1779 55° Northeast  Level Estimated
Thu 08:05:00 AM 58.8375 20.3604 55° Northeast  Level Estimated
Thu 08:06:00 AM 58.9021 20.5436 56° Northeast  Level Estimated
Thu 08:07:00 AM 58.9664 20.7274 56° Northeast  Level Estimated
Thu 08:08:00 AM 59.0305 20.9119 56° Northeast  Level Estimated
Thu 08:09:00 AM 59.0943 21.0972 56° Northeast  Level Estimated
Thu 08:10:00 AM 59.1578 21.2831 56° Northeast  Level Estimated
Thu 08:11:00 AM 59.2211 21.4697 56° Northeast  Level Estimated
Thu 08:12:00 AM 59.2841 21.6570 57° Northeast  Level Estimated
Thu 08:13:00 AM 59.3469 21.8449 57° Northeast  Level Estimated
Thu 08:14:00 AM 59.4094 22.0336 57° Northeast  Level Estimated
Thu 08:15:00 AM 59.4707 22.2203 57° Northeast  Level Estimated
Thu 08:16:00 AM 59.5318 22.4077 57° Northeast  Level Estimated
Thu 08:17:00 AM 59.5925 22.5958 57° Northeast  Level Estimated
Thu 08:18:00 AM 59.6531 22.7845 58° Northeast  Level Estimated
Thu 08:19:00 AM 59.7133 22.9739 58° Northeast  Level Estimated
Thu 08:20:00 AM 59.7733 23.1640 58° Northeast  Level Estimated
Thu 08:21:00 AM 59.8330 23.3548 58° Northeast  Level Estimated
Thu 08:22:00 AM 59.8924 23.5463 58° Northeast  Level Estimated
Thu 08:23:00 AM 59.9515 23.7384 58° Northeast  Level Estimated
Thu 08:24:00 AM 60.0104 23.9313 59° Northeast  Level Estimated
Thu 08:25:00 AM 60.0690 24.1248 59° Northeast  Level Estimated
Thu 08:26:00 AM 60.1273 24.3190 59° Northeast  Level Estimated
Thu 08:27:00 AM 60.1853 24.5139 59° Northeast  Level Estimated
Thu 08:28:00 AM 60.2430 24.7095 59° Northeast  Level Estimated
Thu 08:29:00 AM 60.3005 24.9058 59° Northeast  Level Estimated
Thu 08:30:00 AM 60.3172 24.9633 60° Northeast  Level Estimated
Thu 08:31:00 AM 60.3172 24.9633 37° Northeast  Level Estimated
Thu 08:32:00 AM 60.3172 24.9633 37° Northeast  Level Estimated
Thu 08:33:00 AM 60.3172 24.9633 37° Northeast  Level Estimated
Thu 08:34:00 AM 60.3172 24.9633 37° Northeast  Level Estimated
Thu 08:35:00 AM 60.3172 24.9633 37° Northeast  Level Estimated
Thu 08:36:00 AM 60.3172 24.9633 37° Northeast  Level Estimated
Thu 08:37:00 AM 60.3172 24.9633 37° Northeast  Level Estimated
Thu 08:38:00 AM 60.3172 24.9633 37° Northeast  Level Estimated
Thu 08:39:00 AM 60.3172 24.9633 37° Northeast  Level Estimated
Thu 08:40:00 AM 60.3172 24.9633 37° Northeast  Level Estimated

Login

Don't have an account? Register now (free) for customized features, flight alerts, and more!